Time;durP1;ratioP1;P1;durP2;ratioP2;P2;SDS_P1;SDS_P2;PMS_P1;PMS_P2;Temp;Humidity;BMP_temperature;BMP_pressure;BME280_temperature;BME280_humidity;BME280_pressure;Samples;Min_cycle;Max_cycle;Signal;HPM_P1;HPM_P2
2022/08/07 00:00:16;;;;;;;1.35;0.80;;;16.30;86.90;;;15.77;67.08;102033.41;4169859;28;20491;-73
2022/08/07 00:02:17;;;;;;;2.85;0.95;;;16.30;87.10;;;15.79;66.78;102034.91;4182139;28;20043;-73
2022/08/07 00:04:18;;;;;;;1.55;0.93;;;16.30;87.20;;;15.66;67.07;102017.69;4169484;28;20424;-72
2022/08/07 00:06:19;;;;;;;1.98;1.08;;;16.30;87.30;;;15.61;67.37;102009.38;4180924;28;20029;-73
2022/08/07 00:08:23;;;;;;;1.48;0.63;;;16.20;87.30;;;15.57;67.32;102005.34;4161025;28;20072;-73
2022/08/07 00:10:24;;;;;;;;;;;16.20;87.60;;;15.59;67.84;102027.31;4170340;28;20060;-73
2022/08/07 00:12:25;;;;;;;1.17;0.57;;;16.20;87.80;;;15.53;68.02;102025.28;4173288;28;19925;-73
2022/08/07 00:14:29;;;;;;;1.80;0.70;;;16.10;87.90;;;15.42;68.77;102005.91;4185853;28;20047;-73
2022/08/07 00:16:30;;;;;;;2.35;0.77;;;16.00;88.30;;;15.43;68.51;102018.22;4172654;28;20040;-72
2022/08/07 00:18:32;;;;;;;1.05;0.60;;;16.00;88.40;;;15.38;68.51;102014.34;4179224;28;20053;-73
2022/08/07 00:20:33;;;;;;;4.18;0.80;;;15.90;88.40;;;15.35;68.97;102012.00;4169099;28;20021;-72
2022/08/07 00:22:34;;;;;;;1.88;0.60;;;15.90;88.50;;;15.33;69.30;102012.16;4169402;28;20025;-72
2022/08/07 00:24:35;;;;;;;1.45;0.70;;;15.80;88.90;;;15.13;69.36;101996.56;4159167;28;20057;-73
2022/08/07 00:26:36;;;;;;;2.05;0.70;;;15.80;89.20;;;15.09;70.19;101996.03;4169339;28;20478;-73
2022/08/07 00:28:37;;;;;;;1.50;0.73;;;15.70;89.60;;;15.13;70.89;102007.19;4182085;28;20032;-73
2022/08/07 00:30:38;;;;;;;2.42;0.80;;;15.60;89.90;;;15.00;70.91;101999.59;4185406;28;20040;-73
2022/08/07 00:32:40;;;;;;;3.78;0.75;;;15.60;90.00;;;14.98;71.40;102001.59;4185720;28;20116;-73
2022/08/07 00:34:41;;;;;;;1.33;0.50;;;15.50;90.10;;;14.89;71.74;102007.81;4176427;28;20032;-73
2022/08/07 00:36:43;;;;;;;1.70;0.57;;;15.50;90.30;;;14.89;72.06;102005.16;4165156;28;20032;-72
2022/08/07 00:38:44;;;;;;;3.17;0.70;;;15.40;90.40;;;14.82;72.46;102004.09;4185446;28;20029;-74
2022/08/07 00:40:45;;;;;;;1.85;0.90;;;15.40;90.80;;;14.81;72.64;102005.09;4169071;28;20025;-73
2022/08/07 00:42:47;;;;;;;5.30;0.80;;;15.30;90.60;;;14.75;73.05;102001.25;4176284;28;20076;-73
2022/08/07 00:44:48;;;;;;;0.30;0.20;;;15.30;90.80;;;14.69;73.59;101995.69;4165071;28;20035;-73
2022/08/07 00:46:50;;;;;;;3.03;0.85;;;15.20;90.90;;;14.65;74.04;101996.97;4158579;28;20108;-73
2022/08/07 00:48:51;;;;;;;3.83;1.00;;;15.20;91.10;;;14.55;74.35;101999.69;4179794;28;20029;-72
2022/08/07 00:50:52;;;;;;;1.08;0.75;;;15.10;91.20;;;14.51;74.79;101993.03;4179194;28;20056;-73
2022/08/07 00:52:53;;;;;;;2.40;0.75;;;15.10;91.30;;;14.52;74.86;101993.84;4185437;28;20109;-72
2022/08/07 00:54:54;;;;;;;4.75;0.68;;;15.00;91.30;;;14.50;74.93;102006.47;4186552;28;20029;-73
2022/08/07 00:56:55;;;;;;;1.35;0.75;;;14.90;91.40;;;14.38;75.13;101984.59;4185330;28;20024;-73
2022/08/07 00:58:57;;;;;;;4.70;0.85;;;14.90;91.50;;;14.37;75.40;101997.03;4185251;28;20025;-73
2022/08/07 01:00:59;;;;;;;1.90;0.50;;;14.90;91.50;;;14.36;75.70;101995.38;4156683;28;20567;-73
2022/08/07 01:03:00;;;;;;;1.90;0.70;;;14.80;91.60;;;14.32;76.26;101996.66;4167854;28;20041;-73
2022/08/07 01:05:05;;;;;;;1.50;0.40;;;14.80;91.80;;;14.27;76.67;101995.41;4179645;28;20464;-73
2022/08/07 01:07:06;;;;;;;2.55;0.65;;;14.80;91.90;;;14.20;76.88;101995.16;4168674;28;20060;-72
2022/08/07 01:09:07;;;;;;;1.10;0.40;;;14.70;92.00;;;14.12;77.19;101987.13;4168659;28;20060;-73
2022/08/07 01:11:09;;;;;;;1.15;0.77;;;14.70;92.10;;;13.99;77.72;101965.41;4185206;28;20075;-73
2022/08/07 01:13:11;;;;;;;1.58;0.57;;;14.60;92.10;;;14.06;77.91;101985.06;4185139;28;20029;-73
2022/08/07 01:15:13;;;;;;;2.35;0.70;;;14.60;92.20;;;13.93;78.35;101966.00;4174941;28;20049;-73
2022/08/07 01:17:14;;;;;;;1.80;0.60;;;14.50;92.30;;;13.85;78.27;101964.09;4180814;28;20028;-72
2022/08/07 01:19:17;;;;;;;2.17;1.15;;;14.50;92.50;;;13.85;78.55;101966.75;4169104;28;20051;-73
2022/08/07 01:21:22;;;;;;;2.30;0.90;;;14.40;92.50;;;13.89;78.95;101985.03;4168378;28;20021;-73
2022/08/07 01:23:24;;;;;;;2.63;0.60;;;14.40;92.60;;;13.71;78.67;101958.41;4185300;28;20103;-73
2022/08/07 01:25:25;;;;;;;1.15;0.55;;;14.30;92.60;;;13.77;79.17;101971.94;4181644;28;20024;-73
2022/08/07 01:27:26;;;;;;;6.20;1.00;;;14.30;92.70;;;13.77;79.46;101979.88;4182548;28;20033;-73
2022/08/07 01:29:29;;;;;;;2.53;0.88;;;14.20;92.80;;;13.77;79.66;101976.38;4169588;28;20093;-73
2022/08/07 01:31:30;;;;;;;0.80;0.45;;;14.20;92.90;;;13.72;80.10;101979.50;4161903;28;20076;-73
2022/08/07 01:33:31;;;;;;;1.10;0.80;;;14.20;93.00;;;13.68;80.28;101985.22;4172699;28;20021;-73
2022/08/07 01:35:33;;;;;;;1.55;0.57;;;14.20;93.10;;;13.53;80.61;101962.84;4185595;28;20465;-73
2022/08/07 01:37:34;;;;;;;2.60;0.60;;;14.10;93.20;;;13.47;80.63;101964.22;4184601;28;20067;-73
2022/08/07 01:39:35;;;;;;;2.22;0.55;;;14.10;93.20;;;13.45;80.89;101965.38;4185752;28;20033;-73
2022/08/07 01:41:38;;;;;;;1.40;0.65;;;14.10;93.30;;;13.51;81.33;101983.34;4184377;28;20582;-73
2022/08/07 01:43:39;;;;;;;1.55;0.75;;;14.00;93.40;;;13.34;81.31;101958.44;4184514;28;20079;-73
2022/08/07 01:45:41;;;;;;;2.08;0.98;;;14.00;93.40;;;13.37;81.60;101962.59;4177486;28;20033;-73
2022/08/07 01:47:43;;;;;;;1.75;0.77;;;14.00;93.50;;;13.33;81.75;101956.75;4178475;28;20031;-73
2022/08/07 01:49:43;;;;;;;2.20;0.85;;;14.00;93.50;;;13.32;81.78;101964.88;4167805;28;20017;-73
2022/08/07 01:51:46;;;;;;;1.88;0.80;;;13.90;93.60;;;13.36;81.72;101971.53;4183369;28;20401;-73
2022/08/07 01:53:58;;;;;;;1.25;0.60;;;13.90;93.60;;;13.26;81.53;101964.44;4168054;28;20501;-73
2022/08/07 01:56:11;;;;;;;1.63;0.73;;;13.90;93.60;;;13.27;81.79;101963.47;4179410;28;20033;-73
2022/08/07 01:58:17;;;;;;;2.20;0.70;;;13.80;93.60;;;13.22;81.45;101960.44;4171268;28;20031;-73
2022/08/07 02:00:18;;;;;;;2.08;0.30;;;13.80;93.60;;;13.21;81.74;101958.75;4184510;28;20033;-73
2022/08/07 02:02:28;;;;;;;2.95;0.60;;;13.80;93.60;;;13.18;81.89;101952.88;4184451;28;20021;-73
2022/08/07 02:04:56;;;;;;;3.70;0.95;;;13.80;93.70;;;13.17;82.30;101948.59;4182797;28;20033;-73
2022/08/07 02:07:01;;;;;;;0.85;0.45;;;13.80;93.80;;;13.20;82.08;101959.72;4175023;28;20022;-73
2022/08/07 02:09:06;;;;;;;1.15;0.60;;;13.80;93.80;;;13.17;82.48;101960.00;4184060;28;20537;-73
2022/08/07 02:11:10;;;;;;;2.20;1.17;;;13.80;93.90;;;13.28;82.52;101981.06;4184156;28;20029;-73
2022/08/07 02:13:12;;;;;;;1.15;0.43;;;13.80;93.90;;;13.16;82.04;101953.06;4178741;28;20034;-72
2022/08/07 02:15:14;;;;;;;5.35;0.60;;;13.80;93.80;;;13.13;82.11;101945.38;4175360;28;20068;-73
2022/08/07 02:17:16;;;;;;;1.17;0.60;;;13.80;93.80;;;13.28;82.16;101969.63;4168246;28;20040;-73
2022/08/07 02:19:18;;;;;;;1.67;0.45;;;13.80;93.80;;;13.27;82.28;101967.94;4182886;28;20539;-73
2022/08/07 02:21:21;;;;;;;1.30;0.65;;;13.80;93.90;;;13.20;83.13;101957.06;4183759;28;20025;-73
2022/08/07 02:23:23;;;;;;;1.20;0.80;;;13.80;94.00;;;13.18;82.69;101953.72;4184169;28;20432;-73
2022/08/07 02:25:26;;;;;;;4.57;0.98;;;13.80;94.00;;;13.15;83.18;101947.88;4183978;28;20029;-73
2022/08/07 02:27:28;;;;;;;1.73;0.63;;;13.80;94.10;;;13.28;83.11;101974.91;4180596;28;20025;-73
2022/08/07 02:29:32;;;;;;;2.72;0.73;;;13.80;94.10;;;13.15;83.52;101959.31;4177728;28;20056;-73
2022/08/07 02:31:34;;;;;;;1.42;0.70;;;13.70;94.20;;;13.12;83.91;101959.59;4183741;28;20108;-72
2022/08/07 02:33:37;;;;;;;2.00;0.93;;;13.70;94.30;;;13.08;83.89;101958.19;4183893;28;20108;-73
2022/08/07 02:35:40;;;;;;;1.13;0.80;;;13.70;94.30;;;13.02;83.47;101953.44;4183704;28;20182;-73
2022/08/07 02:37:41;;;;;;;0.80;0.60;;;13.70;94.30;;;13.16;83.83;101971.59;4183831;28;20118;-73
2022/08/07 02:39:45;;;;;;;0.73;0.50;;;13.70;94.30;;;13.08;83.64;101966.16;4184188;28;20025;-73
2022/08/07 02:41:47;;;;;;;16.58;0.80;;;13.70;94.30;;;13.10;84.11;101973.97;4182541;28;20120;-72
2022/08/07 02:43:49;;;;;;;2.33;0.93;;;13.60;94.40;;;13.08;84.36;101975.94;4183257;28;20462;-73
2022/08/07 02:45:52;;;;;;;2.90;1.00;;;13.60;94.40;;;13.04;84.53;101961.25;4176903;28;20052;-73
2022/08/07 02:47:53;;;;;;;1.50;0.50;;;13.60;94.50;;;13.05;84.44;101969.06;4167251;28;20179;-72
2022/08/07 02:49:54;;;;;;;1.40;0.73;;;13.50;94.50;;;12.99;84.49;101968.81;4167833;28;20132;-73
2022/08/07 02:51:57;;;;;;;0.80;0.20;;;13.50;94.60;;;12.91;84.76;101958.91;4167123;28;20035;-73
2022/08/07 02:54:01;;;;;;;2.43;0.63;;;13.50;94.70;;;12.96;85.07;101964.59;4167073;28;20033;-73
2022/08/07 02:56:04;;;;;;;0.50;0.30;;;13.50;94.80;;;12.86;85.77;101958.50;4167147;28;20504;-73
2022/08/07 02:58:10;;;;;;;1.25;0.63;;;13.50;94.90;;;12.83;85.88;101950.84;4166905;28;20033;-73
2022/08/07 03:00:13;;;;;;;1.73;0.95;;;13.40;94.90;;;12.87;85.77;101964.63;4168212;28;20029;-73
2022/08/07 03:02:14;;;;;;;1.48;0.75;;;13.40;95.00;;;12.80;85.77;101952.94;4150516;28;20022;-73
2022/08/07 03:04:17;;;;;;;1.17;0.35;;;13.40;94.90;;;12.83;85.85;101953.50;4168033;28;20405;-72
2022/08/07 03:06:20;;;;;;;1.92;0.77;;;13.40;95.00;;;12.76;85.82;101939.97;4183080;28;20029;-73
2022/08/07 03:08:22;;;;;;;2.28;0.68;;;13.40;95.00;;;12.84;85.78;101957.81;4183400;28;20025;-73
2022/08/07 03:10:23;;;;;;;2.65;0.98;;;13.40;95.00;;;12.78;85.50;101945.13;4166797;28;20033;-73
2022/08/07 03:12:25;;;;;;;5.03;0.88;;;13.40;95.00;;;12.87;85.96;101956.69;4183522;28;20025;-73
2022/08/07 03:14:28;;;;;;;1.67;0.80;;;13.40;95.00;;;12.87;85.86;101964.63;4183351;28;20029;-73
2022/08/07 03:16:35;;;;;;;1.98;1.05;;;13.40;95.10;;;12.85;85.65;101956.81;4183451;28;20099;-73
2022/08/07 03:18:37;;;;;;;1.88;0.60;;;13.40;95.00;;;12.77;85.21;101939.00;4183394;28;20120;-73
2022/08/07 03:20:39;;;;;;;2.80;0.93;;;13.40;95.00;;;12.75;85.45;101942.78;4182831;28;20021;-73
2022/08/07 03:22:42;;;;;;;2.65;0.90;;;13.40;95.00;;;12.90;85.30;101957.25;4183762;28;20059;-73
2022/08/07 03:24:44;;;;;;;5.47;0.75;;;13.40;94.90;;;12.89;85.41;101955.56;4190922;28;20542;-73
2022/08/07 03:26:49;;;;;;;2.08;0.50;;;13.40;95.00;;;12.87;85.63;101944.28;4186587;28;20488;-74
2022/08/07 03:28:51;;;;;;;3.92;1.13;;;13.40;95.00;;;12.92;85.40;101959.75;4183493;28;20056;-73
2022/08/07 03:31:17;;;;;;;2.00;0.90;;;13.40;95.00;;;12.74;85.90;101930.50;4186607;28;20037;-73
2022/08/07 03:33:14;;;;;;;1.65;0.80;;;13.40;95.10;;;12.86;86.18;101955.00;4180914;28;20021;-73
2022/08/07 03:35:24;;;;;;;3.17;0.65;;;13.40;95.20;;;12.86;85.63;101957.66;4186387;28;20060;-73
2022/08/07 03:37:27;;;;;;;4.15;0.80;;;13.40;95.10;;;12.81;85.78;101946.66;4190941;28;20059;-73
2022/08/07 03:39:32;;;;;;;1.50;0.60;;;13.40;95.20;;;12.86;85.97;101952.38;4186182;28;20021;-72
2022/08/07 03:41:36;;;;;;;2.35;1.08;;;13.30;95.20;;;12.86;86.27;101953.22;4165276;28;20022;-72
2022/08/07 03:43:38;;;;;;;0.82;0.52;;;13.30;95.20;;;12.70;86.35;101937.03;4185035;28;20103;-72
2022/08/07 03:45:39;;;;;;;2.97;0.50;;;13.30;95.30;;;12.76;85.95;101947.91;4176054;28;20029;-72
2022/08/07 03:47:40;;;;;;;2.03;0.68;;;13.30;95.30;;;12.78;86.28;101945.13;4186446;28;20029;-72
2022/08/07 03:49:43;;;;;;;1.77;1.15;;;13.30;95.30;;;12.75;86.75;101953.38;4187095;28;20446;-72
2022/08/07 03:51:45;;;;;;;6.70;1.13;;;13.30;95.40;;;12.73;86.32;101948.19;4185740;28;20027;-73
2022/08/07 03:53:46;;;;;;;1.40;0.73;;;13.20;95.30;;;12.71;86.41;101942.22;4187164;28;20033;-73
2022/08/07 03:55:50;;;;;;;1.48;0.77;;;13.20;95.30;;;12.80;85.92;101945.81;4186314;28;20028;-72
2022/08/07 03:57:51;;;;;;;1.10;0.70;;;13.30;95.30;;;12.84;85.81;101949.88;4202882;28;20051;-72
2022/08/07 03:59:54;;;;;;;4.60;1.33;;;13.30;95.20;;;12.83;86.13;101950.00;4185811;28;20049;-72
2022/08/07 04:01:55;;;;;;;2.33;0.50;;;13.30;95.30;;;12.83;86.29;101958.78;4186091;28;20079;-72
2022/08/07 04:03:56;;;;;;;4.50;0.88;;;13.30;95.30;;;12.77;86.21;101949.59;4186063;28;20408;-72
2022/08/07 04:05:58;;;;;;;1.60;0.57;;;13.30;95.40;;;12.80;86.34;101961.72;4198230;28;20032;-72
2022/08/07 04:07:59;;;;;;;1.27;0.77;;;13.30;95.40;;;12.76;86.30;101957.66;4187272;28;20117;-72
2022/08/07 04:10:02;;;;;;;4.55;0.95;;;13.30;95.40;;;12.72;86.71;101958.94;4186166;28;20045;-73
2022/08/07 04:12:04;;;;;;;1.23;0.60;;;13.30;95.50;;;12.70;86.96;101963.53;4185943;28;20033;-72
2022/08/07 04:14:06;;;;;;;1.73;0.88;;;13.20;95.50;;;12.68;87.35;101962.84;4185930;28;20404;-72
2022/08/07 04:16:07;;;;;;;1.38;0.77;;;13.20;95.60;;;12.63;87.32;101957.94;4187328;28;20044;-72
2022/08/07 04:18:12;;;;;;;1.88;0.73;;;13.20;95.70;;;12.64;87.57;101966.72;4186060;28;20025;-72
2022/08/07 04:20:13;;;;;;;5.32;0.82;;;13.10;95.70;;;12.59;87.83;101961.88;4195846;28;20031;-72
2022/08/07 04:22:16;;;;;;;2.40;0.80;;;13.10;95.80;;;12.57;87.90;101968.28;4169013;28;20029;-73
2022/08/07 04:24:18;;;;;;;2.15;1.08;;;13.10;95.90;;;12.52;87.90;101954.59;4172991;28;20052;-72
2022/08/07 04:26:19;;;;;;;1.88;0.82;;;13.10;95.90;;;12.54;88.10;101968.56;4176485;28;20040;-73
2022/08/07 04:28:20;;;;;;;2.17;0.63;;;13.10;95.90;;;12.52;88.21;101960.72;4185733;28;20044;-73
2022/08/07 04:30:21;;;;;;;1.02;0.65;;;13.00;95.90;;;12.50;88.31;101959.22;4185717;28;20021;-73
2022/08/07 04:32:22;;;;;;;3.08;0.68;;;13.00;96.10;;;12.49;88.76;101965.47;4172439;28;20033;-72
2022/08/07 04:34:24;;;;;;;2.47;0.75;;;13.00;96.10;;;12.41;88.28;101946.81;4159597;28;20072;-73
2022/08/07 04:36:25;;;;;;;2.20;0.80;;;13.00;96.10;;;12.46;88.58;101960.44;4184980;28;20033;-73
2022/08/07 04:38:26;;;;;;;1.95;1.17;;;13.00;96.10;;;12.48;88.54;101963.81;4182452;28;20048;-72
2022/08/07 04:40:27;;;;;;;1.92;0.90;;;13.00;96.20;;;12.46;88.48;101963.09;4172433;28;20029;-72
2022/08/07 04:42:30;;;;;;;1.48;0.95;;;13.00;96.10;;;12.40;88.74;101961.00;4186361;28;20041;-72
2022/08/07 04:44:32;;;;;;;1.15;0.70;;;13.00;96.20;;;12.42;88.81;101961.72;4169232;28;20022;-72
2022/08/07 04:46:48;;;;;;;3.88;0.68;;;12.90;96.20;;;12.44;89.40;101965.06;4172241;28;20025;-73
2022/08/07 04:49:38;;;;;;;5.20;1.27;;;12.90;96.30;;;12.39;89.33;101964.63;4172968;28;20112;-73
2022/08/07 04:52:00;;;;;;;2.17;1.00;;;12.90;96.40;;;12.30;89.33;101955.72;4157504;28;20068;-73
2022/08/07 04:54:40;;;;;;;1.83;0.60;;;12.90;96.30;;;12.31;88.68;101945.94;4185353;28;20527;-72
2022/08/07 04:57:01;;;;;;;2.10;0.70;;;12.90;96.30;;;12.45;89.17;101970.22;4187586;28;20033;-73
2022/08/07 04:59:24;;;;;;;3.25;1.02;;;13.00;96.40;;;12.42;89.28;101967.00;4186371;28;20028;-73
2022/08/07 05:01:45;;;;;;;3.83;1.05;;;13.00;96.40;;;12.32;88.82;101947.63;4185111;28;20021;-73
2022/08/07 05:04:13;;;;;;;2.08;0.68;;;13.00;96.30;;;12.37;89.12;101958.63;4185275;28;20040;-73
2022/08/07 05:06:43;;;;;;;4.60;1.80;;;13.00;96.40;;;12.44;89.04;101968.53;4167754;28;20091;-73
2022/08/07 05:09:30;;;;;;;2.42;0.88;;;13.00;96.40;;;12.45;89.29;101974.69;4177571;28;20512;-73
2022/08/07 05:11:41;;;;;;;2.50;0.93;;;13.00;96.50;;;12.42;89.75;101975.78;4182792;28;20035;-72
2022/08/07 05:13:59;;;;;;;4.07;0.90;;;13.00;96.50;;;12.42;89.40;101967.84;4150093;28;20110;-73
2022/08/07 05:16:08;;;;;;;1.73;0.77;;;13.00;96.50;;;12.44;89.35;101973.00;4199947;28;20044;-73
2022/08/07 05:18:33;;;;;;;5.90;1.17;;;13.00;96.50;;;12.47;89.13;101978.00;4113663;28;1749464;-72
2022/08/07 05:20:45;;;;;;;2.60;1.10;;;13.00;96.50;;;12.49;89.37;101976.06;4156003;28;20606;-73
2022/08/07 05:22:51;;;;;;;2.05;0.98;;;13.00;96.50;;;12.53;89.11;101990.69;4168328;28;20033;-73
2022/08/07 05:24:54;;;;;;;4.07;1.08;;;13.00;96.50;;;12.52;88.94;101975.78;4184839;28;20393;-72
2022/08/07 05:26:58;;;;;;;1.40;0.85;;;13.10;96.50;;;12.55;89.33;101983.44;4179935;28;20028;-73
2022/08/07 05:29:03;;;;;;;1.02;0.70;;;13.10;96.60;;;12.54;89.28;101984.44;4183297;28;20024;-73
2022/08/07 05:31:06;;;;;;;3.00;0.95;;;13.10;96.60;;;12.63;89.10;101994.19;4157745;28;20077;-73
2022/08/07 05:33:08;;;;;;;1.90;0.90;;;13.10;96.50;;;12.60;88.96;101991.81;4177100;28;20611;-73
2022/08/07 05:35:10;;;;;;;7.03;1.33;;;13.10;96.50;;;12.66;88.71;101996.56;4180258;28;20021;-72
2022/08/07 05:37:14;;;;;;;1.92;1.02;;;13.20;96.40;;;12.67;88.75;101990.28;4183826;28;20149;-72
2022/08/07 05:39:17;;;;;;;1.17;1.00;;;13.20;96.40;;;12.73;88.65;102000.31;4174564;28;20150;-72
2022/08/07 05:41:18;;;;;;;3.38;1.20;;;13.30;96.40;;;12.62;88.38;101971.34;4184403;28;20443;-72
2022/08/07 05:43:20;;;;;;;3.00;1.35;;;13.30;96.30;;;12.71;87.85;101981.09;4180992;28;20045;-73
2022/08/07 05:45:24;;;;;;;1.67;0.95;;;13.30;96.40;;;12.88;87.89;101995.41;4171028;28;20074;-72
2022/08/07 05:47:24;;;;;;;3.00;1.00;;;13.40;96.30;;;12.88;87.52;101992.78;4174242;28;20029;-72
2022/08/07 05:49:26;;;;;;;0.98;0.80;;;13.40;96.10;;;12.86;87.16;101984.97;4179272;28;20033;-73
2022/08/07 05:51:27;;;;;;;1.52;0.77;;;13.50;96.10;;;12.95;86.97;101991.25;4185145;28;20107;-73
2022/08/07 05:53:29;;;;;;;1.77;0.75;;;13.50;96.00;;;13.01;86.69;101993.34;4180682;28;91155;-73
2022/08/07 05:55:33;;;;;;;2.20;1.10;;;13.50;95.90;;;13.07;86.32;101993.59;4177479;28;20041;-73
2022/08/07 05:57:36;;;;;;;;;;;13.60;95.80;;;13.01;86.20;101991.53;4178680;28;20484;-73
2022/08/07 05:59:39;;;;;;;3.25;1.02;;;13.60;95.80;;;13.12;86.14;101996.69;4184161;28;20458;-73
2022/08/07 06:01:41;;;;;;;1.95;1.02;;;13.70;95.70;;;13.20;85.98;102010.06;4188449;28;20385;-73
2022/08/07 06:03:51;;;;;;;1.38;0.80;;;13.70;95.70;;;13.25;85.75;102004.34;4167429;28;20040;-73
2022/08/07 06:05:53;;;;;;;3.08;1.13;;;13.70;95.60;;;13.28;85.56;102002.25;4180843;28;20504;-73
2022/08/07 06:07:58;;;;;;;1.23;0.77;;;13.80;95.60;;;13.32;85.31;101996.66;4183937;28;20033;-73
2022/08/07 06:09:59;;;;;;;1.45;0.90;;;13.90;95.50;;;13.40;84.79;101994.97;4174398;28;20393;-73
2022/08/07 06:12:00;;;;;;;3.00;0.90;;;13.90;95.40;;;13.47;84.88;102006.66;4182780;28;20032;-73
2022/08/07 06:14:03;;;;;;;3.35;1.13;;;14.00;95.40;;;13.50;84.99;101998.41;4153450;28;20178;-73
2022/08/07 06:16:06;;;;;;;2.38;1.10;;;14.00;95.40;;;13.55;84.56;101998.00;4164741;28;20030;-72
2022/08/07 06:18:08;;;;;;;2.55;0.85;;;14.10;95.40;;;13.58;84.31;101997.69;4173564;28;20079;-73
2022/08/07 06:20:10;;;;;;;3.78;1.33;;;14.10;95.30;;;13.60;84.19;102001.03;4177747;28;20029;-73
2022/08/07 06:22:11;;;;;;;2.20;1.05;;;14.20;95.20;;;13.67;84.23;101996.84;4184154;28;20033;-73
2022/08/07 06:24:12;;;;;;;1.88;0.73;;;14.30;95.30;;;13.76;84.05;102003.91;4183579;28;20107;-73
2022/08/07 06:26:14;;;;;;;1.73;1.10;;;14.30;95.30;;;13.78;83.77;102000.13;4167567;28;20033;-73
2022/08/07 06:28:15;;;;;;;1.40;0.75;;;14.40;95.10;;;13.78;83.41;101981.56;4176608;28;20531;-73
2022/08/07 06:30:16;;;;;;;1.25;0.80;;;14.40;95.00;;;13.98;82.92;102003.50;4184067;28;20116;-73
2022/08/07 06:32:17;;;;;;;1.17;0.57;;;14.50;95.00;;;13.98;83.05;101995.56;4183832;28;20029;-73
2022/08/07 06:34:22;;;;;;;1.65;0.90;;;14.60;94.90;;;14.11;82.45;102008.47;4172422;28;20037;-73
2022/08/07 06:36:25;;;;;;;1.80;0.95;;;14.60;94.80;;;14.10;82.18;101994.38;4176075;28;20495;-72
2022/08/07 06:38:26;;;;;;;3.83;0.82;;;14.70;94.70;;;14.22;81.77;101995.00;4179798;28;20067;-73
2022/08/07 06:40:33;;;;;;;1.90;0.70;;;14.80;94.60;;;14.39;81.50;102013.63;4184387;28;20026;-73
2022/08/07 06:42:38;;;;;;;2.33;1.20;;;14.90;94.60;;;14.37;81.44;101990.88;4183648;28;20087;-73
2022/08/07 06:44:41;;;;;;;1.42;0.93;;;14.90;94.50;;;14.62;80.69;102010.56;4177143;28;20021;-73
2022/08/07 06:46:42;;;;;;;1.95;0.77;;;15.00;94.40;;;14.65;80.12;102002.28;4169442;28;20034;-73
2022/08/07 06:48:43;;;;;;;6.70;1.33;;;15.10;94.30;;;14.75;80.21;102001.25;4171513;28;20055;-73
2022/08/07 06:50:46;;;;;;;2.78;0.82;;;15.20;94.30;;;14.77;79.85;101995.75;4175339;28;20028;-73
2022/08/07 06:52:52;;;;;;;2.10;0.73;;;15.20;94.10;;;14.88;79.06;102003.50;4183110;28;20032;-73
2022/08/07 06:54:54;;;;;;;0.95;0.50;;;15.30;94.00;;;14.76;79.15;101981.63;4181855;28;20052;-73
2022/08/07 06:56:56;;;;;;;2.03;1.10;;;15.40;93.90;;;14.84;79.07;101983.56;4183605;28;20025;-72
2022/08/07 06:58:57;;;;;;;3.83;1.27;;;15.50;93.90;;;14.95;79.01;101994.78;4177448;28;20021;-73
2022/08/07 07:00:59;;;;;;;2.58;1.00;;;15.50;93.80;;;14.85;78.73;101972.75;4170343;28;20049;-73
2022/08/07 07:03:00;;;;;;;0.88;0.60;;;15.60;93.80;;;15.15;78.46;102003.38;4186963;28;20071;-73
2022/08/07 07:05:02;;;;;;;1.58;0.90;;;15.60;93.60;;;15.21;78.32;102005.41;4158771;28;20026;-73
2022/08/07 07:07:06;;;;;;;1.92;0.88;;;15.70;93.60;;;15.23;77.66;101979.50;4179832;28;20032;-73
2022/08/07 07:09:28;;;;;;;1.67;1.02;;;15.80;93.50;;;15.42;76.23;101994.41;4188227;28;20061;-73
2022/08/07 07:11:29;;;;;;;4.70;1.20;;;15.90;92.90;;;15.36;76.06;101985.25;4175149;28;20044;-73
2022/08/07 07:13:43;;;;;;;1.00;0.60;;;16.00;93.00;;;15.60;75.01;101991.72;4170162;28;20061;-73
2022/08/07 07:15:53;;;;;;;1.67;0.63;;;16.10;92.70;;;15.67;75.11;101998.94;4170430;28;20032;-73
2022/08/07 07:18:18;;;;;;;2.95;0.57;;;16.20;92.60;;;15.85;73.37;102001.50;4170831;28;20045;-73
2022/08/07 07:20:38;;;;;;;6.53;0.57;;;16.30;92.20;;;15.89;72.59;102005.50;4181308;28;20515;-73
2022/08/07 07:22:40;;;;;;;2.65;0.52;;;16.40;91.90;;;15.83;71.68;101977.69;4185622;28;20053;-73
2022/08/07 07:24:42;;;;;;;1.75;0.73;;;16.50;91.80;;;16.00;71.65;101991.94;4177144;28;20579;-73
2022/08/07 07:26:45;;;;;;;1.08;0.73;;;16.60;91.70;;;16.11;70.29;101991.63;4180591;28;20084;-73
2022/08/07 07:29:00;;;;;;;0.80;0.65;;;16.70;91.20;;;16.18;69.71;101989.16;4183724;28;20096;-73
2022/08/07 07:31:12;;;;;;;0.82;0.68;;;16.80;91.00;;;16.35;68.96;102004.16;4159676;28;20429;-72
2022/08/07 07:33:16;;;;;;;1.33;0.60;;;16.90;90.70;;;16.46;68.31;102001.19;4180672;28;20037;-72
2022/08/07 07:35:17;;;;;;;0.70;0.60;;;16.90;90.50;;;16.55;68.06;101998.41;4185996;28;20056;-73
2022/08/07 07:37:21;;;;;;;1.75;0.82;;;17.00;90.50;;;16.74;66.98;101996.44;4174199;28;20568;-73
2022/08/07 07:39:23;;;;;;;1.05;0.45;;;17.20;90.20;;;16.76;66.74;101992.59;4177770;28;20025;-73
2022/08/07 07:41:26;;;;;;;3.60;0.95;;;17.20;90.00;;;16.84;66.65;102000.63;4182359;28;20037;-73
2022/08/07 07:43:31;;;;;;;2.35;0.90;;;17.30;89.90;;;16.87;65.82;101981.63;4186521;28;20040;-73
2022/08/07 07:45:32;;;;;;;0.95;0.73;;;17.40;89.20;;;16.93;64.97;101978.31;4170017;28;20059;-73
2022/08/07 07:47:40;;;;;;;1.63;0.65;;;17.50;88.70;;;17.00;65.04;101973.09;4178239;28;20021;-73
2022/08/07 07:49:44;;;;;;;2.13;0.52;;;17.60;88.80;;;17.22;63.83;101992.94;4182387;28;20037;-73
2022/08/07 07:51:47;;;;;;;2.38;1.27;;;17.70;87.70;;;17.28;63.54;101978.91;4185919;28;20029;-73
2022/08/07 07:53:50;;;;;;;1.48;0.65;;;17.80;87.70;;;17.36;63.78;101973.56;4176010;28;20036;-73
2022/08/07 07:55:55;;;;;;;1.58;0.80;;;17.90;87.90;;;17.60;62.72;101990.38;4179812;28;20024;-73
2022/08/07 07:57:57;;;;;;;2.47;1.25;;;18.00;87.00;;;17.59;62.38;101985.22;4186011;28;20059;-73
2022/08/07 08:00:00;;;;;;;1.95;0.60;;;18.10;86.70;;;17.77;62.61;101985.00;4186510;28;20505;-73
2022/08/07 08:02:02;;;;;;;3.13;0.70;;;18.20;87.00;;;17.79;62.29;101969.63;4186293;28;20064;-73
2022/08/07 08:04:07;;;;;;;0.80;0.50;;;18.40;86.80;;;18.03;61.01;101988.22;4180571;28;20025;-73
2022/08/07 08:06:08;;;;;;;2.00;0.68;;;18.50;85.70;;;18.13;60.01;101976.28;4183856;28;20033;-73
2022/08/07 08:08:11;;;;;;;0.68;0.52;;;18.60;85.00;;;18.20;59.60;101968.41;4169894;28;20029;-73
2022/08/07 08:10:14;;;;;;;2.42;0.98;;;18.70;84.50;;;18.37;59.08;101974.50;4185769;28;20063;-73
2022/08/07 08:12:16;;;;;;;2.10;0.88;;;18.90;84.20;;;18.62;57.94;101984.03;4181985;28;20021;-74
2022/08/07 08:14:17;;;;;;;0.98;0.82;;;19.00;83.20;;;18.71;58.92;101981.13;4169384;28;20037;-74
2022/08/07 08:16:21;;;;;;;1.10;0.85;;;19.20;84.30;;;18.64;58.50;101957.94;4174692;28;20390;-74
2022/08/07 08:18:25;;;;;;;2.53;0.98;;;19.30;83.70;;;18.75;58.25;101971.75;4177292;28;20036;-73
2022/08/07 08:20:31;;;;;;;2.47;0.60;;;19.30;83.50;;;18.86;57.80;101959.78;4181644;28;20029;-74
2022/08/07 08:27:24;;;;;;;0.82;0.60;;;19.70;81.30;;;19.29;55.59;101974.25;4184126;28;20044;-73
2022/08/07 08:29:28;;;;;;;2.30;0.90;;;19.80;81.00;;;19.44;54.60;101969.78;4185926;28;20032;-73
2022/08/07 08:31:35;;;;;;;1.10;0.70;;;19.90;79.90;;;19.57;55.36;101986.00;4180334;28;20480;-73
2022/08/07 08:33:37;;;;;;;1.63;0.75;;;20.00;81.10;;;19.77;53.47;101976.41;4185287;28;20033;-73
2022/08/07 08:35:40;;;;;;;1.48;0.85;;;20.10;79.10;;;19.82;52.80;101967.81;4156662;28;20088;-73
2022/08/07 08:37:44;;;;;;;2.72;0.80;;;20.30;78.40;;;19.93;52.36;101963.81;4176571;28;20036;-73
2022/08/07 08:39:47;;;;;;;1.10;0.57;;;20.40;78.20;;;20.11;51.20;101964.25;4180208;28;20029;-73
2022/08/07 08:42:01;;;;;;;2.35;0.82;;;20.50;76.90;;;20.22;51.01;101969.94;4167359;28;20024;-73